Time;durP1;ratioP1;P1;durP2;ratioP2;P2;SDS_P1;SDS_P2;PMS_P1;PMS_P2;Temp;Humidity;BMP_temperature;BMP_pressure;BME280_temperature;BME280_humidity;BME280_pressure;Samples;Min_cycle;Max_cycle;Signal;HPM_P1;HPM_P2
2022/02/04 00:23:03;;;;;;;;;39.33;37.33;;;;;1.55;93.72;100898.66;6284225;22;11533;-72
2022/02/04 00:26:10;;;;;;;;;37.00;35.33;;;;;1.51;94.02;100895.63;6274297;22;11569;-72
2022/02/04 00:29:16;;;;;;;;;38.67;38.00;;;;;1.56;93.69;100895.66;6274561;22;8780;-72
2022/02/04 00:32:12;;;;;;;;;39.67;36.33;;;;;1.45;93.03;100885.78;6274040;22;11528;-72
2022/02/04 00:35:43;;;;;;;;;39.67;37.00;;;;;1.54;92.04;100892.41;6274268;22;11578;-73
2022/02/04 00:38:34;;;;;;;;;45.67;39.00;;;;;1.49;92.92;100895.09;6274185;22;11486;-72
2022/02/04 00:41:34;;;;;;;;;26.00;26.00;;;;;1.42;92.52;100897.22;6274490;22;8779;-72
2022/02/04 00:44:20;;;;;;;;;45.33;40.33;;;;;1.41;93.35;100902.97;6286973;22;11461;-71
2022/02/04 00:47:20;;;;;;;;;40.33;38.00;;;;;1.38;93.40;100901.56;6305294;22;11516;-71
2022/02/04 00:50:31;;;;;;;;;46.00;37.67;;;;;1.51;92.41;100901.09;6284927;22;8800;-72
2022/02/04 00:56:37;;;;;;;;;39.00;36.00;;;;;1.21;92.60;100899.03;6305414;22;8881;-72
2022/02/04 01:28:12;;;;;;;;;44.00;42.00;;;;;1.14;92.44;100922.13;6306519;22;8891;-72
2022/02/04 01:31:08;;;;;;;;;53.33;43.00;;;;;1.24;92.83;100914.03;6284740;22;8781;-72
2022/02/04 01:34:04;;;;;;;;;49.67;45.00;;;;;1.18;92.83;100920.53;6304783;22;8796;-72
2022/02/04 01:37:00;;;;;;;;;49.00;43.33;;;;;1.20;92.71;100918.34;6304957;22;8808;-72
2022/02/04 01:39:28;;;;;;;;;44.33;41.00;;;;;1.22;93.23;100924.34;6315542;22;8847;-72
2022/02/04 01:42:09;;;;;;;;;42.00;36.33;;;;;1.14;92.29;100922.13;6314520;22;8816;-72
2022/02/04 01:45:05;;;;;;;;;41.00;38.33;;;;;1.05;93.12;100922.63;6273712;22;8790;-72
2022/02/04 01:48:01;;;;;;;;;44.67;41.33;;;;;1.08;93.15;100918.56;6276972;22;8778;-72
2022/02/04 01:50:57;;;;;;;;;38.33;38.00;;;;;0.85;93.13;100918.94;6274788;22;8794;-72
2022/02/04 01:53:52;;;;;;;;;54.33;49.00;;;;;0.82;93.23;100925.72;6274667;22;8798;-72
2022/02/04 01:56:48;;;;;;;;;31.33;30.00;;;;;0.89;93.80;100920.88;6277120;22;8790;-72
2022/02/04 01:59:44;;;;;;;;;37.67;34.00;;;;;0.85;94.02;100918.94;6294126;22;8782;-72
2022/02/04 02:02:39;;;;;;;;;38.33;38.33;;;;;0.96;94.03;100928.81;6274671;22;8820;-72
2022/02/04 02:05:35;;;;;;;;;41.00;41.00;;;;;0.98;93.32;100926.66;6276892;22;9481;-72
2022/02/04 02:08:16;;;;;;;;;44.67;43.67;;;;;0.76;94.13;100935.72;6286452;22;8774;-72
2022/02/04 02:10:58;;;;;;;;;34.67;34.67;;;;;0.71;94.66;100933.00;6275037;22;8896;-72
2022/02/04 02:13:54;;;;;;;;;26.67;25.67;;;;;0.69;94.44;100931.59;6276602;22;8786;-72
2022/02/04 02:42:32;;;;;;;;;28.67;27.00;;;;;0.17;95.12;100927.59;6276635;22;8790;-72
2022/02/04 02:51:43;;;;;;;;;32.00;31.00;;;;;0.28;94.90;100942.09;6275989;22;8778;-72
2022/02/04 03:03:53;;;;;;;;;47.67;45.67;;;;;0.35;94.43;100940.00;6276499;22;8775;-72
2022/02/04 03:06:49;;;;;;;;;22.00;21.33;;;;;0.14;94.09;100947.13;6276499;22;9469;-72
2022/02/04 03:09:44;;;;;;;;;39.33;37.00;;;;;0.31;93.91;100943.47;6276721;22;8810;-72
2022/02/04 03:12:28;;;;;;;;;42.00;39.00;;;;;0.40;93.99;100950.13;6276957;22;8871;-72
2022/02/04 03:15:23;;;;;;;;;34.00;32.33;;;;;0.41;93.25;100938.97;6274287;22;8824;-72
2022/02/04 03:18:23;;;;;;;;;34.67;33.33;;;;;0.34;92.77;100946.53;6277389;22;8801;-72
2022/02/04 03:21:27;;;;;;;;;39.33;38.00;;;;;0.21;92.94;100945.00;6273971;22;8790;-72
2022/02/04 03:24:27;;;;;;;;;44.00;42.33;;;;;0.20;92.86;100956.16;6275515;22;9492;-72
2022/02/04 03:27:24;;;;;;;;;41.67;37.33;;;;;0.26;93.32;100955.97;6276106;22;8817;-72
2022/02/04 03:30:28;;;;;;;;;41.67;41.67;;;;;0.16;92.82;100950.41;6275833;22;8880;-72
2022/02/04 03:33:27;;;;;;;;;33.67;33.67;;;;;0.18;92.17;100956.41;6273438;22;8798;-72
2022/02/04 03:36:23;;;;;;;;;48.33;40.67;;;;;0.31;92.30;100957.94;6292256;22;8890;-73
2022/02/04 03:39:18;;;;;;;;;48.33;42.00;;;;;0.21;91.98;100953.19;6273538;22;8805;-72
2022/02/04 03:42:14;;;;;;;;;16.67;15.67;;;;;0.15;91.05;100956.91;6277262;22;9515;-73
2022/02/04 03:45:09;;;;;;;;;1.00;0.00;;;;;0.16;91.02;100961.31;6303578;22;8777;-73
2022/02/04 03:48:05;;;;;;;;;45.33;42.00;;;;;0.19;90.72;100958.06;6305902;22;8800;-73
2022/02/04 03:51:01;;;;;;;;;50.00;45.67;;;;;0.20;91.93;100958.88;6305664;22;8777;-73
2022/02/04 03:53:29;;;;;;;;;43.00;40.33;;;;;0.16;91.24;100968.63;6315907;22;8761;-73
2022/02/04 03:56:25;;;;;;;;;44.33;38.67;;;;;0.25;91.96;100965.19;6305592;22;8789;-73
2022/02/04 03:59:25;;;;;;;;;48.00;44.67;;;;;0.25;92.12;100962.47;6304974;22;9555;-72
2022/02/04 04:02:20;;;;;;;;;38.33;36.67;;;;;0.08;91.25;100960.91;6305462;22;8798;-72
2022/02/04 04:05:16;;;;;;;;;40.00;39.67;;;;;0.06;91.33;100963.88;6305640;22;8783;-72
2022/02/04 04:08:17;;;;;;;;;30.00;29.33;;;;;-0.02;92.10;100962.44;6306977;22;8769;-72
2022/02/04 04:11:14;;;;;;;;;34.00;34.00;;;;;-0.06;92.63;100974.09;6305563;22;9496;-72
2022/02/04 04:14:09;;;;;;;;;47.33;39.33;;;;;-0.03;92.07;100971.69;6305626;22;8820;-72
2022/02/04 04:17:05;;;;;;;;;44.33;43.00;;;;;-0.03;92.21;100970.84;6305807;22;8780;-72
2022/02/04 04:20:01;;;;;;;;;54.33;48.00;;;;;0.07;92.65;100973.69;6306788;22;8769;-73
2022/02/04 04:22:30;;;;;;;;;54.67;48.33;;;;;0.10;92.19;100969.66;6315994;22;8785;-72
2022/02/04 04:25:26;;;;;;;;;37.67;36.67;;;;;0.22;92.46;100979.28;6305732;22;8781;-72
2022/02/04 04:28:22;;;;;;;;;40.33;40.00;;;;;0.27;91.53;100981.25;6305391;22;8789;-72
2022/02/04 04:31:21;;;;;;;;;45.00;34.33;;;;;0.12;91.81;100975.66;6284953;22;8789;-72
2022/02/04 04:34:17;;;;;;;;;39.67;39.67;;;;;0.10;91.63;100973.19;6305305;22;8789;-72
2022/02/04 04:37:12;;;;;;;;;37.00;36.67;;;;;0.11;91.42;100976.72;6304928;22;8843;-73
2022/02/04 05:29:50;;;;;;;;;33.67;33.67;;;;;0.07;90.73;101030.78;6306910;22;8803;-72
2022/02/04 05:32:32;;;;;;;;;36.33;33.33;;;;;0.03;91.27;101031.56;6307158;22;8811;-72
2022/02/04 05:35:27;;;;;;;;;30.67;30.33;;;;;1.31;98.49;101027.19;6307206;22;8785;-74
2022/02/04 05:38:23;;;;;;;;;29.00;29.00;;;;;2.06;100.00;101030.59;6306905;22;9535;-74
2022/02/04 05:41:25;;;;;;;;;37.33;37.33;;;;;1.41;100.00;101023.69;6306961;22;8803;-74
2022/02/04 05:44:21;;;;;;;;;36.00;32.33;;;;;2.27;100.00;101027.97;6306747;22;8789;-73
2022/02/04 05:47:18;;;;;;;;;28.00;23.67;;;;;1.81;100.00;101027.75;6306882;22;8785;-73
2022/02/04 05:50:02;;;;;;;;;39.00;39.00;;;;;2.46;100.00;101029.16;6308261;22;12205;-73
2022/02/04 05:52:42;;;;;;;;;47.00;43.67;;;;;1.76;98.10;101034.00;6290316;22;11464;-75
2022/02/04 05:56:24;;;;;;;;;29.67;27.33;;;;;1.56;93.32;101031.97;6306668;22;8772;-73
2022/02/04 06:00:47;;;;;;;;;39.33;37.67;;;;;1.33;92.66;101035.91;6317109;22;11456;-73
2022/02/04 06:03:43;;;;;;;;;39.00;39.00;;;;;1.93;97.28;101037.38;6290378;22;11468;-73
2022/02/04 06:22:30;;;;;;;;;43.00;37.33;;;;;1.93;94.80;101039.28;6308298;22;11474;-73
2022/02/04 06:24:58;;;;;;;;;46.67;45.00;;;;;2.11;95.43;101030.63;6316992;22;12209;-74
2022/02/04 06:27:27;;;;;;;;;31.67;31.67;;;;;2.09;94.89;101041.00;6308066;22;11615;-74
2022/02/04 06:29:56;;;;;;;;;35.00;31.00;;;;;1.54;91.05;101034.16;6316419;22;11572;-74
2022/02/04 06:32:24;;;;;;;;;40.00;37.33;;;;;1.08;88.03;101039.25;6307329;22;11571;-75
2022/02/04 06:34:52;;;;;;;;;36.67;33.67;;;;;1.02;89.77;101037.56;6316871;22;11464;-74
2022/02/04 06:37:20;;;;;;;;;46.33;41.33;;;;;1.42;91.86;101038.97;6316824;22;11466;-75
2022/02/04 06:39:48;;;;;;;;;34.00;32.33;;;;;1.62;95.58;101041.03;6289177;22;11482;-75
2022/02/04 06:42:21;;;;;;;;;34.00;32.33;;;;;1.28;90.73;101041.31;6306630;22;11606;-74
2022/02/04 06:45:17;;;;;;;;;39.67;38.00;;;;;0.95;87.43;101047.00;6305721;22;11477;-71
2022/02/04 06:48:12;;;;;;;;;33.33;32.00;;;;;0.77;86.52;101042.78;6306004;22;8797;-72
2022/02/04 06:50:49;;;;;;;;;33.67;31.67;;;;;0.57;87.88;101048.81;6291707;22;8797;-72
2022/02/04 06:53:44;;;;;;;;;25.33;24.33;;;;;0.36;87.33;101045.03;6306833;22;11484;-72
2022/02/04 06:56:40;;;;;;;;;31.67;31.67;;;;;0.20;88.65;101052.19;6306992;22;8866;-70
2022/02/04 06:59:09;;;;;;;;;31.00;30.67;;;;;0.07;89.46;101047.13;6316638;22;8781;-71
2022/02/04 07:02:04;;;;;;;;;30.33;30.00;;;;;0.05;89.33;101045.72;6285772;22;8784;-71
2022/02/04 07:04:35;;;;;;;;;28.33;28.33;;;;;-0.03;89.38;101049.72;6290055;22;8801;-71
2022/02/04 07:07:34;;;;;;;;;23.33;23.33;;;;;0.16;88.78;101052.97;6305776;22;9585;-70
2022/02/04 07:10:53;;;;;;;;;38.67;38.33;;;;;0.15;89.24;101059.44;6305837;22;8772;-72
2022/02/04 07:19:46;;;;;;;;;25.33;25.33;;;;;0.04;88.22;101057.69;6316278;22;8830;-70
2022/02/04 07:22:41;;;;;;;;;38.00;33.33;;;;;0.09;88.86;101065.94;6306048;22;8823;-71
2022/02/04 07:25:37;;;;;;;;;32.67;31.00;;;;;0.03;89.01;101056.03;6305927;22;9554;-70
2022/02/04 07:28:05;;;;;;;;;33.33;32.67;;;;;-0.09;89.62;101056.97;6280307;22;8785;-71
2022/02/04 07:31:03;;;;;;;;;37.00;37.00;;;;;0.10;89.42;101057.50;6305721;22;9533;-70
2022/02/04 07:43:04;;;;;;;;;24.00;24.00;;;;;-0.04;88.63;101040.72;6315448;22;8789;-72
2022/02/04 07:46:00;;;;;;;;;49.00;37.33;;;;;-0.11;88.36;101063.75;6305167;22;8816;-70
2022/02/04 07:48:28;;;;;;;;;44.00;42.00;;;;;-0.06;89.07;101053.75;6288912;22;8796;-71
2022/02/04 07:51:24;;;;;;;;;29.33;29.33;;;;;0.14;89.54;101057.81;6286414;22;8809;-71
2022/02/04 07:54:19;;;;;;;;;26.33;26.33;;;;;0.10;88.67;101064.84;6304734;22;8823;-74
2022/02/04 07:57:15;;;;;;;;;37.00;37.00;;;;;0.05;88.51;101060.16;6305433;22;8789;-73
2022/02/04 08:00:14;;;;;;;;;30.33;27.67;;;;;-0.07;87.81;101068.44;6304332;22;8803;-73
2022/02/04 08:02:46;;;;;;;;;34.00;33.00;;;;;-0.06;88.54;101063.81;6316256;22;8769;-73
2022/02/04 08:05:41;;;;;;;;;38.33;34.33;;;;;-0.09;89.19;101058.88;6306544;22;9454;-74
2022/02/04 08:18:18;;;;;;;;;33.33;33.33;;;;;-0.09;88.49;101065.13;6305071;22;8793;-74
2022/02/04 08:21:48;;;;;;;;;37.00;34.00;;;;;-0.09;88.07;101056.16;6305273;22;8800;-73
2022/02/04 08:53:05;;;;;;;;;38.67;35.67;;;;;-0.08;89.39;101055.06;6211504;23;8811;-73
2022/02/04 08:55:54;;;;;;;;;29.33;29.33;;;;;-0.43;88.96;101055.41;6308211;22;8765;-72
2022/02/04 08:58:56;;;;;;;;;34.00;30.00;;;;;-0.28;89.34;101048.28;6306732;22;8804;-72
2022/02/04 09:02:03;;;;;;;;;29.33;27.67;;;;;-0.33;89.12;101042.78;6306836;22;8832;-72
2022/02/04 09:05:03;;;;;;;;;36.00;36.00;;;;;-0.31;88.70;101042.50;6307155;22;8875;-73
2022/02/04 09:07:46;;;;;;;;;36.33;35.67;;;;;-0.43;88.45;101048.06;6317410;22;8769;-73
2022/02/04 09:10:42;;;;;;;;;37.67;33.67;;;;;-0.46;88.48;101054.00;6306966;22;8781;-73
2022/02/04 09:17:13;;;;;;;;;38.00;36.00;;;;;-0.46;89.41;101040.44;6306634;22;8818;-73
2022/02/04 09:20:24;;;;;;;;;34.00;30.33;;;;;-0.16;89.00;101040.00;6307073;22;8770;-73
2022/02/04 09:23:19;;;;;;;;;40.33;35.67;;;;;-0.26;88.80;101034.44;6307009;22;8773;-74
2022/02/04 09:26:15;;;;;;;;;36.67;33.67;;;;;-0.42;88.35;101035.31;6307063;22;8785;-73
2022/02/04 09:29:11;;;;;;;;;40.67;38.00;;;;;-0.54;88.36;101038.09;6306760;22;8812;-74
2022/02/04 09:32:07;;;;;;;;;30.00;30.00;;;;;-0.37;88.07;101035.38;6306802;22;8777;-75
2022/02/04 09:35:11;;;;;;;;;31.00;27.33;;;;;-0.40;89.10;101025.81;6286514;22;8788;-72
2022/02/04 09:38:08;;;;;;;;;36.33;34.00;;;;;-0.40;89.42;101028.53;6306886;22;8773;-72
2022/02/04 09:41:03;;;;;;;;;35.00;31.33;;;;;-0.52;89.13;101033.25;6306727;22;8813;-73
2022/02/04 09:43:59;;;;;;;;;34.00;34.00;;;;;-0.37;89.40;101021.78;6286626;22;8789;-74
2022/02/04 09:46:57;;;;;;;;;27.33;25.67;;;;;-0.49;88.28;101024.59;6306924;22;9598;-73
2022/02/04 09:49:58;;;;;;;;;35.33;32.33;;;;;-0.69;89.57;101027.00;6306691;22;9627;-73
2022/02/04 10:17:57;;;;;;;;;53.33;43.00;;;;;-0.71;88.32;101031.88;6317041;22;8761;-75
2022/02/04 10:20:25;;;;;;;;;37.67;36.33;;;;;-0.55;88.85;101039.19;6280659;22;8801;-77
2022/02/04 10:22:53;;;;;;;;;42.00;40.33;;;;;-0.48;89.18;101028.97;6290158;22;8817;-75
2022/02/04 10:25:32;;;;;;;;;42.67;40.67;;;;;-0.35;88.27;101019.66;6280451;22;8885;-77
2022/02/04 10:28:26;;;;;;;;;44.33;42.67;;;;;-0.46;87.53;101023.28;6307991;22;8875;-74
2022/02/04 10:31:20;;;;;;;;;55.67;46.33;;;;;-0.50;88.54;101031.13;6307997;22;8805;-75
2022/02/04 10:33:56;;;;;;;;;40.33;38.00;;;;;-0.58;88.70;101028.81;6290014;22;8872;-75
2022/02/04 10:36:36;;;;;;;;;55.33;47.33;;;;;-0.60;88.14;101025.53;6281315;22;8812;-76
2022/02/04 10:39:22;;;;;;;;;41.33;41.33;;;;;-0.32;88.68;101019.94;6316905;22;8805;-76
2022/02/04 10:42:43;;;;;;;;;45.00;43.67;;;;;-0.43;88.20;101018.19;6317058;22;8844;-76
2022/02/04 10:45:52;;;;;;;;;40.00;35.00;;;;;-0.43;88.43;101023.59;6153298;23;8818;-77
2022/02/04 10:48:26;;;;;;;;;33.33;28.67;;;;;-0.37;88.12;101017.19;6150940;23;8895;-77
2022/02/04 10:53:57;;;;;;;;;34.33;30.00;;;;;-0.45;87.52;101033.09;6276429;22;8794;-79
2022/02/04 11:03:11;;;;;;;;;47.33;45.00;;;;;-0.90;88.40;101020.44;6276242;22;8904;-79
2022/02/04 11:21:58;;;;;;;;;47.67;45.33;;;;;-0.80;89.88;101017.88;6253380;22;8825;-78
2022/02/04 11:44:23;;;;;;;;;44.33;40.33;;;;;-0.38;87.69;101020.97;6285753;22;8851;-78
2022/02/04 11:54:29;;;;;;;;;39.33;36.33;;;;;-0.68;87.27;101020.53;6305358;22;9443;-77
2022/02/04 11:57:04;;;;;;;;;42.67;42.67;;;;;-0.54;87.49;101021.78;6305967;22;8822;-80
2022/02/04 11:59:46;;;;;;;;;30.33;29.33;;;;;-0.65;87.91;101028.16;6319282;22;8777;-79
2022/02/04 12:02:30;;;;;;;;;36.67;35.00;;;;;-0.84;86.93;101024.91;6283594;22;8793;-80
2022/02/04 12:05:28;;;;;;;;;25.33;17.33;;;;;-0.78;87.59;101028.50;6304645;22;8803;-80
2022/02/04 12:07:57;;;;;;;;;29.33;26.67;;;;;-0.83;86.31;101028.44;6307860;22;8877;-79
2022/02/04 12:10:28;;;;;;;;;54.67;48.00;;;;;-0.87;86.93;101026.19;6254892;22;8950;-79
2022/02/04 12:12:56;;;;;;;;;31.00;29.33;;;;;-0.84;87.65;101030.31;6316346;22;8789;-79
2022/02/04 12:16:07;;;;;;;;;61.33;51.00;;;;;-0.77;87.07;101028.22;6305480;22;8781;-80
2022/02/04 12:19:08;;;;;;;;;50.33;45.33;;;;;-0.59;87.45;101028.00;6285241;22;8897;-80
2022/02/04 12:22:03;;;;;;;;;43.33;40.67;;;;;-0.50;87.39;101017.53;6306171;22;9543;-80
2022/02/04 12:24:37;;;;;;;;;63.33;54.67;;;;;-0.53;87.88;101028.09;6280130;22;8899;-81
2022/02/04 12:27:35;;;;;;;;;54.67;44.00;;;;;-0.44;88.45;101024.69;6286226;22;8789;-79
2022/02/04 12:30:34;;;;;;;;;30.67;30.67;;;;;-0.63;87.71;101020.56;6285469;22;8781;-80
2022/02/04 12:33:31;;;;;;;;;41.67;41.00;;;;;-0.52;88.00;101037.88;6287011;22;8773;-79
2022/02/04 12:36:26;;;;;;;;;45.33;39.00;;;;;-0.50;88.12;101025.69;6312589;22;8793;-81
2022/02/04 12:39:25;;;;;;;;;39.33;39.33;;;;;-0.63;87.75;101034.16;6305694;22;8801;-79
2022/02/04 12:42:21;;;;;;;;;33.33;33.00;;;;;-0.68;87.44;101036.81;6285024;22;8900;-78
2022/02/04 12:45:17;;;;;;;;;37.00;36.00;;;;;-0.69;87.40;101037.88;6273356;22;8802;-79
2022/02/04 12:48:13;;;;;;;;;41.33;38.33;;;;;-0.67;87.97;101044.72;6292930;22;8798;-79
2022/02/04 12:51:28;;;;;;;;;35.67;35.33;;;;;-0.67;87.19;101049.31;6273493;22;8809;-81
2022/02/04 12:54:53;;;;;;;;;42.67;39.67;;;;;-0.79;87.73;101052.13;6273889;22;8798;-80
2022/02/04 12:58:09;;;;;;;;;37.67;33.67;;;;;-0.77;87.86;101054.56;6273711;22;8790;-80
2022/02/04 13:07:42;;;;;;;;;52.67;47.33;;;;;-0.68;88.09;101050.41;6285155;22;8859;-82
2022/02/04 13:10:32;;;;;;;;;42.67;40.00;;;;;-0.50;87.51;101054.75;6310449;22;8778;-80
2022/02/04 13:13:34;;;;;;;;;34.67;33.33;;;;;-0.50;87.62;101058.28;6275573;22;8900;-81
2022/02/04 13:16:31;;;;;;;;;38.67;36.67;;;;;-0.56;86.50;101051.13;6273474;22;8859;-81
2022/02/04 13:19:27;;;;;;;;;27.33;27.33;;;;;-0.57;87.00;101052.19;6275517;22;8778;-81
2022/02/04 13:22:23;;;;;;;;;38.00;35.33;;;;;-0.46;87.03;101064.88;6273723;22;8793;-79
2022/02/04 13:25:12;;;;;;;;;47.33;42.67;;;;;-0.56;86.46;101065.53;6284947;22;8817;-80
2022/02/04 13:28:33;;;;;;;;;34.00;31.67;;;;;-0.54;85.93;101069.88;6275650;22;8795;-80
2022/02/04 13:31:31;;;;;;;;;51.00;48.33;;;;;-0.47;86.41;101079.50;6273577;22;8774;-80
2022/02/04 13:34:28;;;;;;;;;43.67;37.67;;;;;-0.39;87.37;101075.56;6292559;22;8802;-78
2022/02/04 13:37:33;;;;;;;;;66.67;54.00;;;;;-0.39;86.08;101073.66;6275755;22;8978;-80
2022/02/04 13:47:30;;;;;;;;;33.33;31.67;;;;;-0.50;87.44;101082.72;6277474;22;8778;-78
2022/02/04 13:50:38;;;;;;;;;31.67;28.67;;;;;-0.53;86.57;101079.72;6275293;22;8805;-79
2022/02/04 13:53:50;;;;;;;;;40.00;37.67;;;;;-0.42;86.48;101086.94;6275014;22;8821;-79
2022/02/04 13:56:53;;;;;;;;;36.67;34.00;;;;;-0.32;86.25;101082.47;6275012;22;8808;-80
2022/02/04 13:59:44;;;;;;;;;33.00;31.00;;;;;-0.26;85.14;101087.97;6287839;22;8782;-79
2022/02/04 14:02:35;;;;;;;;;28.00;28.00;;;;;-0.35;85.66;101090.31;6280300;22;8810;-79
2022/02/04 14:05:42;;;;;;;;;29.67;29.67;;;;;-0.58;86.76;101092.13;6274990;22;8821;-78
2022/02/04 14:08:29;;;;;;;;;37.00;36.00;;;;;-0.63;86.86;101100.19;6280950;22;8889;-80
2022/02/04 14:11:00;;;;;;;;;35.33;32.33;;;;;-0.68;87.46;101099.28;6286931;22;8861;-80
2022/02/04 14:13:30;;;;;;;;;26.00;24.67;;;;;-0.77;87.31;101098.03;6284960;22;8782;-79
2022/02/04 14:16:05;;;;;;;;;42.00;37.00;;;;;-0.80;87.65;101093.91;6284685;22;9565;-80
2022/02/04 14:18:35;;;;;;;;;42.00;35.67;;;;;-0.63;88.34;101105.63;6310497;22;8810;-80
2022/02/04 14:21:35;;;;;;;;;36.00;33.67;;;;;-0.60;87.64;101112.47;6277562;22;8782;-80
2022/02/04 14:24:31;;;;;;;;;31.33;28.00;;;;;-0.78;87.11;101112.69;6277402;22;8789;-80
2022/02/04 14:27:28;;;;;;;;;32.00;31.67;;;;;-0.75;86.46;101114.94;6278167;22;8786;-81
2022/02/04 14:30:29;;;;;;;;;40.33;34.00;;;;;-0.81;86.88;101115.91;6277036;22;8826;-80
2022/02/04 14:52:28;;;;;;;;;26.33;24.00;;;;;-0.83;85.31;101147.91;6286061;22;8813;-75
2022/02/04 15:03:39;;;;;;;;;34.67;27.67;;;;;-0.90;85.40;101165.19;6276614;22;8840;-77
2022/02/04 15:06:38;;;;;;;;;33.00;29.33;;;;;-0.80;85.43;101161.81;6274817;22;8837;-75
2022/02/04 15:09:36;;;;;;;;;39.33;36.00;;;;;-0.69;84.71;101171.81;6273226;22;8798;-74
2022/02/04 15:12:32;;;;;;;;;27.67;25.67;;;;;-0.83;84.47;101175.91;6275862;22;8802;-75
2022/02/04 15:15:28;;;;;;;;;30.33;30.33;;;;;-0.87;84.23;101163.84;6276271;22;8836;-74
2022/02/04 15:18:23;;;;;;;;;44.33;38.33;;;;;-0.66;84.32;101170.50;6273792;22;9436;-74
2022/02/04 15:21:21;;;;;;;;;39.33;39.33;;;;;-0.75;84.50;101175.50;6275589;22;8782;-74
2022/02/04 15:24:16;;;;;;;;;34.67;32.33;;;;;-0.76;84.12;101182.00;6273486;22;8805;-74
2022/02/04 15:27:12;;;;;;;;;30.67;29.67;;;;;-0.92;84.34;101174.63;6275611;22;9538;-74
2022/02/04 15:30:10;;;;;;;;;33.67;31.00;;;;;-1.00;83.46;101172.28;6275589;22;9545;-73
2022/02/04 15:33:06;;;;;;;;;28.00;27.33;;;;;-0.90;84.17;101181.47;6275439;22;9526;-74
2022/02/04 15:36:04;;;;;;;;;30.33;29.00;;;;;-0.93;84.35;101186.53;6276215;22;8801;-75
2022/02/04 15:39:04;;;;;;;;;28.67;28.00;;;;;-0.85;84.31;101189.69;6273523;22;8813;-77
2022/02/04 15:42:07;;;;;;;;;29.67;28.33;;;;;-0.68;83.75;101203.34;6275898;22;8832;-75
2022/02/04 15:48:38;;;;;;;;;37.67;36.33;;;;;-0.78;82.96;101207.75;6285412;22;8812;-75
2022/02/04 16:01:14;;;;;;;;;24.33;23.33;;;;;-0.49;81.94;101236.53;6305635;22;8797;-76
2022/02/04 16:04:22;;;;;;;;;28.00;26.33;;;;;-0.52;80.89;101236.22;6304730;22;8798;-76
2022/02/04 16:07:19;;;;;;;;;30.33;23.33;;;;;-0.38;82.02;101243.84;6284649;22;9475;-76
2022/02/04 16:10:51;;;;;;;;;29.00;29.00;;;;;-0.55;80.98;101234.81;6291209;22;8891;-75
2022/02/04 16:16:05;;;;;;;;;30.67;30.33;;;;;-0.50;82.03;101237.63;6315608;22;8777;-77
2022/02/04 16:19:14;;;;;;;;;34.00;33.67;;;;;-0.56;81.54;101252.16;6305330;22;8807;-75
2022/02/04 17:05:24;;;;;;;;;37.33;36.33;;;;;-1.03;82.95;101276.78;6258632;22;8835;-78
2022/02/04 17:07:55;;;;;;;;;33.67;33.67;;;;;-0.93;82.81;101270.72;6314381;22;8787;-76
2022/02/04 17:10:49;;;;;;;;;37.33;33.67;;;;;-1.11;82.71;101285.28;6326640;22;8791;-78
2022/02/04 17:13:45;;;;;;;;;44.67;42.33;;;;;-0.96;83.13;101284.78;6306437;22;8863;-78
2022/02/04 17:16:42;;;;;;;;;34.00;34.00;;;;;-1.01;82.44;101282.78;6308178;22;8833;-78
2022/02/04 17:19:50;;;;;;;;;38.33;37.00;;;;;-0.85;82.16;101281.22;6308228;22;8787;-76
2022/02/04 17:22:18;;;;;;;;;34.67;33.33;;;;;-0.68;82.07;101284.00;6332965;22;9077;-78
2022/02/04 17:25:14;;;;;;;;;36.00;33.00;;;;;-0.87;81.96;101281.47;6306082;22;8794;-77
2022/02/04 17:28:10;;;;;;;;;25.33;25.33;;;;;-0.85;81.62;101284.75;6308254;22;8946;-78
2022/02/04 17:31:06;;;;;;;;;27.67;27.67;;;;;-1.18;82.02;101298.16;6308302;22;8780;-78
2022/02/04 17:34:04;;;;;;;;;44.33;43.00;;;;;-1.05;82.46;101294.38;6308455;22;8771;-77
2022/02/04 17:36:59;;;;;;;;;36.00;31.00;;;;;-0.97;82.46;101294.84;6308218;22;8791;-77
2022/02/04 17:39:56;;;;;;;;;41.67;35.33;;;;;-1.05;82.60;101287.06;6309277;22;9477;-78
2022/02/04 17:42:52;;;;;;;;;25.33;24.33;;;;;-1.01;82.07;101299.06;6308167;22;8779;-76
2022/02/04 17:45:22;;;;;;;;;25.33;25.33;;;;;-1.04;81.98;101302.28;6306961;22;8882;-77
2022/02/04 17:48:06;;;;;;;;;30.33;29.33;;;;;-1.15;82.48;101303.09;6307077;22;8791;-77
2022/02/04 17:50:51;;;;;;;;;28.67;27.00;;;;;-0.99;82.38;101307.00;6308606;22;8821;-78
2022/02/04 17:53:24;;;;;;;;;21.67;21.67;;;;;-1.13;81.58;101303.72;6333058;22;8838;-76
2022/02/04 17:56:26;;;;;;;;;39.67;32.33;;;;;-1.18;82.03;101309.03;6281081;22;8787;-78
2022/02/04 17:59:31;;;;;;;;;25.67;25.67;;;;;-1.19;81.67;101307.38;6306269;22;8811;-77
2022/02/04 18:02:22;;;;;;;;;28.67;27.67;;;;;-0.95;81.95;101302.72;6316800;22;8803;-77
2022/02/04 18:05:38;;;;;;;;;32.67;28.33;;;;;-1.01;81.25;101304.50;6307026;22;9556;-77
2022/02/04 18:08:16;;;;;;;;;19.00;18.00;;;;;-1.15;81.02;101309.41;6315997;22;8953;-78
2022/02/04 18:11:13;;;;;;;;;24.67;24.00;;;;;-1.29;80.94;101313.41;6307003;22;8791;-78
2022/02/04 18:13:55;;;;;;;;;22.33;22.33;;;;;-1.04;81.31;101313.16;6326950;22;8772;-77
2022/02/04 18:16:23;;;;;;;;;33.33;31.33;;;;;-1.09;81.49;101313.03;6315641;22;8764;-78
2022/02/04 18:18:51;;;;;;;;;29.67;28.33;;;;;-1.19;81.32;101316.34;6306797;22;8791;-77
2022/02/04 18:21:47;;;;;;;;;32.67;30.67;;;;;-1.09;81.18;101318.44;6306559;22;9596;-77
2022/02/04 18:24:15;;;;;;;;;28.00;26.33;;;;;-1.09;80.49;101323.88;6307933;22;8870;-77
2022/02/04 18:26:57;;;;;;;;;25.33;23.67;;;;;-0.87;80.56;101311.31;6307290;22;8788;-77
2022/02/04 18:29:26;;;;;;;;;21.67;21.00;;;;;-0.91;80.54;101317.50;6316458;22;8768;-78
2022/02/04 18:32:23;;;;;;;;;22.00;22.00;;;;;-1.07;79.73;101313.63;6324445;22;8823;-78
2022/02/04 18:35:20;;;;;;;;;33.33;32.33;;;;;-1.03;80.56;101322.09;6307017;22;8862;-78
2022/02/04 18:43:40;;;;;;;;;25.67;24.33;;;;;-0.83;79.64;101327.16;6316022;22;8779;-78
2022/02/04 18:46:33;;;;;;;;;27.67;27.67;;;;;-0.68;79.91;101322.88;6316057;22;8796;-79
2022/02/04 18:49:30;;;;;;;;;27.00;27.00;;;;;-0.88;79.90;101320.53;6307096;22;8823;-78
2022/02/04 18:57:36;;;;;;;;;24.67;24.33;;;;;-0.89;80.26;101327.03;6265349;22;8897;-79
2022/02/04 19:00:17;;;;;;;;;25.67;25.67;;;;;-0.79;79.96;101339.19;6316766;22;8874;-78
2022/02/04 19:02:50;;;;;;;;;28.67;26.33;;;;;-0.81;79.37;101330.47;6316474;22;8852;-78
2022/02/04 19:05:23;;;;;;;;;13.00;13.00;;;;;-0.95;79.43;101330.72;6313875;22;8771;-78
2022/02/04 19:08:26;;;;;;;;;25.67;25.67;;;;;-0.86;79.32;101331.16;6307546;22;9505;-79
2022/02/04 19:11:32;;;;;;;;;22.00;22.00;;;;;-0.84;79.61;101329.06;6313157;22;8820;-80
2022/02/04 19:17:34;;;;;;;;;30.33;30.33;;;;;-0.86;80.86;101328.44;6318025;22;8787;-79
2022/02/04 19:20:44;;;;;;;;;25.00;24.00;;;;;-0.87;81.43;101335.78;6315884;22;9477;-78
2022/02/04 19:23:49;;;;;;;;;21.33;21.33;;;;;-0.95;80.68;101333.44;6310399;22;8794;-78
2022/02/04 19:26:45;;;;;;;;;21.00;21.00;;;;;-0.96;81.26;101333.66;6311574;22;8823;-79
2022/02/04 19:29:46;;;;;;;;;27.33;27.33;;;;;-0.88;81.61;101333.31;6313679;22;8767;-79
2022/02/04 19:32:42;;;;;;;;;29.67;25.67;;;;;-0.89;80.71;101332.47;6331615;22;8817;-78
2022/02/04 19:35:38;;;;;;;;;28.33;25.33;;;;;-0.89;80.76;101337.91;6312060;22;8768;-77
2022/02/04 19:38:34;;;;;;;;;27.33;27.00;;;;;-0.94;80.77;101337.78;6316787;22;8807;-79
2022/02/04 19:41:32;;;;;;;;;27.00;24.67;;;;;-0.83;80.42;101340.75;6316087;22;8785;-78
2022/02/04 19:44:29;;;;;;;;;33.33;27.33;;;;;-0.89;80.32;101339.81;6317538;22;8876;-78
2022/02/04 19:47:32;;;;;;;;;27.00;27.00;;;;;-1.01;81.10;101339.81;6312437;22;8780;-79
2022/02/04 19:50:59;;;;;;;;;24.33;23.33;;;;;-1.09;81.34;101342.88;6314504;22;8802;-80
2022/02/04 20:13:54;;;;;;;;;23.33;23.33;;;;;-1.16;80.53;101334.03;6328423;22;8783;-79
2022/02/04 20:25:47;;;;;;;;;31.33;27.33;;;;;-1.06;80.61;101328.84;6314745;22;8779;-79
2022/02/04 20:28:43;;;;;;;;;26.33;24.00;;;;;-0.98;79.96;101325.78;6314140;22;8779;-78
2022/02/04 20:31:39;;;;;;;;;25.00;25.00;;;;;-1.13;80.23;101320.84;6311533;22;8888;-79
2022/02/04 20:34:34;;;;;;;;;25.33;25.33;;;;;-1.12;81.13;101321.66;6310278;22;8799;-79
2022/02/04 20:37:31;;;;;;;;;22.67;21.67;;;;;-1.12;80.38;101322.47;6312772;22;8806;-79